sensor_id;sensor_type;location;lat;lon;timestamp;P1;durP1;ratioP1;P2;durP2;ratioP2
51515;SDS011;37603;55.614;37.326;2023-12-29T00:01:32;4.2;;;3.2;;
51515;SDS011;37603;55.614;37.326;2023-12-29T00:07:31;2.4;;;1.2;;
51515;SDS011;37603;55.614;37.326;2023-12-29T00:13:30;3.0;;;1.4;;
51515;SDS011;37603;55.614;37.326;2023-12-29T00:19:28;2.9;;;1.4;;
51515;SDS011;37603;55.614;37.326;2023-12-29T00:25:27;4.1;;;3.7;;
51515;SDS011;37603;55.614;37.326;2023-12-29T00:31:26;2.9;;;1.7;;
51515;SDS011;37603;55.614;37.326;2023-12-29T00:37:24;4.6;;;3.5;;
51515;SDS011;37603;55.614;37.326;2023-12-29T00:43:23;2.6;;;1.3;;
51515;SDS011;37603;55.614;37.326;2023-12-29T00:49:22;3.4;;;1.4;;
51515;SDS011;37603;55.614;37.326;2023-12-29T00:55:21;4.0;;;3.2;;
51515;SDS011;37603;55.614;37.326;2023-12-29T01:01:19;4.5;;;3.4;;
51515;SDS011;37603;55.614;37.326;2023-12-29T01:07:18;2.8;;;1.4;;
51515;SDS011;37603;55.614;37.326;2023-12-29T01:13:17;4.3;;;3.4;;
51515;SDS011;37603;55.614;37.326;2023-12-29T01:19:15;4.9;;;3.6;;
51515;SDS011;37603;55.614;37.326;2023-12-29T01:25:14;4.7;;;3.5;;
51515;SDS011;37603;55.614;37.326;2023-12-29T01:31:13;5.2;;;3.8;;
51515;SDS011;37603;55.614;37.326;2023-12-29T01:37:11;4.6;;;3.5;;
51515;SDS011;37603;55.614;37.326;2023-12-29T01:43:10;3.5;;;1.3;;
51515;SDS011;37603;55.614;37.326;2023-12-29T01:49:09;2.9;;;1.4;;
51515;SDS011;37603;55.614;37.326;2023-12-29T01:55:08;4.2;;;3.2;;
51515;SDS011;37603;55.614;37.326;2023-12-29T02:01:06;1.8;;;1.2;;
51515;SDS011;37603;55.614;37.326;2023-12-29T02:07:05;4.5;;;3.0;;
51515;SDS011;37603;55.614;37.326;2023-12-29T02:13:04;3.5;;;1.4;;
51515;SDS011;37603;55.614;37.326;2023-12-29T02:19:04;4.0;;;3.0;;
51515;SDS011;37603;55.614;37.326;2023-12-29T02:25:01;3.2;;;2.7;;
51515;SDS011;37603;55.614;37.326;2023-12-29T02:36:58;1.9;;;1.3;;
51515;SDS011;37603;55.614;37.326;2023-12-29T02:42:57;3.0;;;1.3;;
51515;SDS011;37603;55.614;37.326;2023-12-29T02:48:56;2.3;;;0.9;;
51515;SDS011;37603;55.614;37.326;2023-12-29T02:54:54;3.1;;;2.4;;
51515;SDS011;37603;55.614;37.326;2023-12-29T03:00:53;3.3;;;1.0;;
51515;SDS011;37603;55.614;37.326;2023-12-29T03:06:52;2.4;;;1.2;;
51515;SDS011;37603;55.614;37.326;2023-12-29T03:12:51;2.2;;;1.0;;
51515;SDS011;37603;55.614;37.326;2023-12-29T03:18:49;1.9;;;1.1;;
51515;SDS011;37603;55.614;37.326;2023-12-29T03:24:48;3.6;;;2.5;;
51515;SDS011;37603;55.614;37.326;2023-12-29T03:30:47;3.1;;;1.3;;
51515;SDS011;37603;55.614;37.326;2023-12-29T03:36:45;3.6;;;2.7;;
51515;SDS011;37603;55.614;37.326;2023-12-29T03:42:44;4.2;;;2.8;;
51515;SDS011;37603;55.614;37.326;2023-12-29T03:48:43;2.0;;;1.2;;
51515;SDS011;37603;55.614;37.326;2023-12-29T03:54:41;3.6;;;3.1;;
51515;SDS011;37603;55.614;37.326;2023-12-29T04:00:40;3.7;;;3.0;;
51515;SDS011;37603;55.614;37.326;2023-12-29T04:06:39;3.3;;;1.4;;
51515;SDS011;37603;55.614;37.326;2023-12-29T04:12:37;4.6;;;3.0;;
51515;SDS011;37603;55.614;37.326;2023-12-29T04:18:36;4.5;;;3.3;;
51515;SDS011;37603;55.614;37.326;2023-12-29T04:24:37;3.9;;;1.6;;
51515;SDS011;37603;55.614;37.326;2023-12-29T04:30:33;4.0;;;1.5;;
51515;SDS011;37603;55.614;37.326;2023-12-29T04:36:32;3.2;;;1.5;;
51515;SDS011;37603;55.614;37.326;2023-12-29T04:42:31;6.1;;;3.9;;
51515;SDS011;37603;55.614;37.326;2023-12-29T04:54:28;6.6;;;4.5;;
51515;SDS011;37603;55.614;37.326;2023-12-29T05:00:27;6.3;;;4.5;;
51515;SDS011;37603;55.614;37.326;2023-12-29T05:06:25;5.3;;;2.0;;
51515;SDS011;37603;55.614;37.326;2023-12-29T05:12:24;6.4;;;4.2;;
51515;SDS011;37603;55.614;37.326;2023-12-29T05:18:23;6.9;;;4.7;;
51515;SDS011;37603;55.614;37.326;2023-12-29T05:24:21;5.3;;;1.8;;
51515;SDS011;37603;55.614;37.326;2023-12-29T05:30:20;7.6;;;4.7;;
51515;SDS011;37603;55.614;37.326;2023-12-29T05:36:19;4.4;;;2.2;;
51515;SDS011;37603;55.614;37.326;2023-12-29T05:42:18;5.7;;;4.5;;
51515;SDS011;37603;55.614;37.326;2023-12-29T05:48:17;4.2;;;1.8;;
51515;SDS011;37603;55.614;37.326;2023-12-29T05:54:15;4.5;;;1.7;;
51515;SDS011;37603;55.614;37.326;2023-12-29T06:00:14;4.6;;;1.9;;
51515;SDS011;37603;55.614;37.326;2023-12-29T06:06:12;4.4;;;2.0;;
51515;SDS011;37603;55.614;37.326;2023-12-29T06:12:11;6.2;;;4.9;;
51515;SDS011;37603;55.614;37.326;2023-12-29T06:18:09;7.3;;;4.7;;
51515;SDS011;37603;55.614;37.326;2023-12-29T06:24:08;3.6;;;2.1;;
51515;SDS011;37603;55.614;37.326;2023-12-29T06:30:07;7.8;;;5.2;;
51515;SDS011;37603;55.614;37.326;2023-12-29T06:36:06;7.9;;;5.1;;
51515;SDS011;37603;55.614;37.326;2023-12-29T06:42:04;7.2;;;5.0;;
51515;SDS011;37603;55.614;37.326;2023-12-29T06:48:03;6.2;;;2.9;;
51515;SDS011;37603;55.614;37.326;2023-12-29T06:54:01;5.0;;;2.2;;
51515;SDS011;37603;55.614;37.326;2023-12-29T07:00:00;7.7;;;5.2;;
51515;SDS011;37603;55.614;37.326;2023-12-29T07:06:00;7.4;;;5.0;;
51515;SDS011;37603;55.614;37.326;2023-12-29T07:11:57;6.4;;;5.0;;
51515;SDS011;37603;55.614;37.326;2023-12-29T07:17:56;7.5;;;5.2;;
51515;SDS011;37603;55.614;37.326;2023-12-29T07:23:55;6.8;;;4.9;;
51515;SDS011;37603;55.614;37.326;2023-12-29T07:29:53;6.1;;;5.1;;
51515;SDS011;37603;55.614;37.326;2023-12-29T07:35:52;5.6;;;2.3;;
51515;SDS011;37603;55.614;37.326;2023-12-29T07:41:51;7.5;;;4.9;;
51515;SDS011;37603;55.614;37.326;2023-12-29T07:47:49;3.8;;;2.2;;
51515;SDS011;37603;55.614;37.326;2023-12-29T07:53:48;8.0;;;5.1;;
51515;SDS011;37603;55.614;37.326;2023-12-29T07:59:47;6.8;;;4.8;;
51515;SDS011;37603;55.614;37.326;2023-12-29T08:05:45;7.3;;;5.2;;
51515;SDS011;37603;55.614;37.326;2023-12-29T08:11:44;7.2;;;5.2;;
51515;SDS011;37603;55.614;37.326;2023-12-29T08:17:43;7.4;;;5.5;;
51515;SDS011;37603;55.614;37.326;2023-12-29T08:23:42;5.2;;;2.6;;
51515;SDS011;37603;55.614;37.326;2023-12-29T08:29:40;8.7;;;6.0;;
51515;SDS011;37603;55.614;37.326;2023-12-29T08:35:39;9.4;;;6.1;;
51515;SDS011;37603;55.614;37.326;2023-12-29T08:41:38;9.3;;;6.0;;
51515;SDS011;37603;55.614;37.326;2023-12-29T08:47:36;10.0;;;6.2;;
51515;SDS011;37603;55.614;37.326;2023-12-29T08:53:35;13.6;;;9.3;;
51515;SDS011;37603;55.614;37.326;2023-12-29T08:59:34;11.0;;;7.6;;
51515;SDS011;37603;55.614;37.326;2023-12-29T09:05:33;11.2;;;7.0;;
51515;SDS011;37603;55.614;37.326;2023-12-29T09:11:31;10.5;;;7.0;;
51515;SDS011;37603;55.614;37.326;2023-12-29T09:17:31;13.3;;;8.3;;
51515;SDS011;37603;55.614;37.326;2023-12-29T09:23:29;15.2;;;9.3;;
51515;SDS011;37603;55.614;37.326;2023-12-29T09:29:28;12.4;;;9.0;;
51515;SDS011;37603;55.614;37.326;2023-12-29T09:35:27;12.0;;;8.4;;
51515;SDS011;37603;55.614;37.326;2023-12-29T09:41:25;13.8;;;8.2;;
51515;SDS011;37603;55.614;37.326;2023-12-29T09:47:25;16.8;;;8.6;;
51515;SDS011;37603;55.614;37.326;2023-12-29T09:53:23;13.7;;;8.7;;
51515;SDS011;37603;55.614;37.326;2023-12-29T09:59:22;15.5;;;9.1;;
51515;SDS011;37603;55.614;37.326;2023-12-29T10:05:20;14.8;;;8.9;;
51515;SDS011;37603;55.614;37.326;2023-12-29T10:11:21;13.4;;;9.3;;
51515;SDS011;37603;55.614;37.326;2023-12-29T10:17:21;12.3;;;8.7;;
51515;SDS011;37603;55.614;37.326;2023-12-29T10:23:18;12.8;;;8.8;;
51515;SDS011;37603;55.614;37.326;2023-12-29T10:29:16;12.3;;;8.8;;
51515;SDS011;37603;55.614;37.326;2023-12-29T10:35:14;12.7;;;9.5;;
51515;SDS011;37603;55.614;37.326;2023-12-29T10:41:14;12.3;;;8.9;;
51515;SDS011;37603;55.614;37.326;2023-12-29T10:47:12;11.4;;;8.7;;
51515;SDS011;37603;55.614;37.326;2023-12-29T10:53:11;10.1;;;7.9;;
51515;SDS011;37603;55.614;37.326;2023-12-29T10:59:10;10.6;;;8.2;;
51515;SDS011;37603;55.614;37.326;2023-12-29T11:05:08;11.2;;;8.5;;
51515;SDS011;37603;55.614;37.326;2023-12-29T11:11:07;11.0;;;8.4;;
51515;SDS011;37603;55.614;37.326;2023-12-29T11:17:06;9.6;;;8.2;;
51515;SDS011;37603;55.614;37.326;2023-12-29T11:23:05;13.5;;;9.6;;
51515;SDS011;37603;55.614;37.326;2023-12-29T11:29:04;12.9;;;9.3;;
51515;SDS011;37603;55.614;37.326;2023-12-29T11:35:05;12.5;;;9.0;;
51515;SDS011;37603;55.614;37.326;2023-12-29T11:41:05;13.4;;;9.3;;
51515;SDS011;37603;55.614;37.326;2023-12-29T11:47:00;13.9;;;9.4;;
51515;SDS011;37603;55.614;37.326;2023-12-29T11:52:59;11.4;;;8.5;;
51515;SDS011;37603;55.614;37.326;2023-12-29T12:04:56;11.4;;;8.3;;
51515;SDS011;37603;55.614;37.326;2023-12-29T12:10:55;13.1;;;9.3;;
51515;SDS011;37603;55.614;37.326;2023-12-29T12:16:54;13.4;;;9.1;;
51515;SDS011;37603;55.614;37.326;2023-12-29T12:22:56;12.0;;;8.5;;
51515;SDS011;37603;55.614;37.326;2023-12-29T12:28:52;12.6;;;9.0;;
51515;SDS011;37603;55.614;37.326;2023-12-29T12:34:50;13.1;;;9.8;;
51515;SDS011;37603;55.614;37.326;2023-12-29T12:40:49;12.9;;;9.3;;
51515;SDS011;37603;55.614;37.326;2023-12-29T12:46:49;12.7;;;9.4;;
51515;SDS011;37603;55.614;37.326;2023-12-29T12:52:47;12.8;;;9.3;;
51515;SDS011;37603;55.614;37.326;2023-12-29T12:58:46;11.8;;;9.0;;
51515;SDS011;37603;55.614;37.326;2023-12-29T13:04:45;11.6;;;9.3;;
51515;SDS011;37603;55.614;37.326;2023-12-29T13:10:43;13.4;;;9.8;;
51515;SDS011;37603;55.614;37.326;2023-12-29T13:16:42;13.1;;;9.9;;
51515;SDS011;37603;55.614;37.326;2023-12-29T13:22:41;13.2;;;9.6;;
51515;SDS011;37603;55.614;37.326;2023-12-29T13:28:40;16.6;;;10.8;;
51515;SDS011;37603;55.614;37.326;2023-12-29T13:40:38;20.6;;;14.0;;
51515;SDS011;37603;55.614;37.326;2023-12-29T13:46:36;22.9;;;15.0;;
51515;SDS011;37603;55.614;37.326;2023-12-29T13:52:35;19.6;;;13.3;;
51515;SDS011;37603;55.614;37.326;2023-12-29T13:58:34;20.3;;;14.0;;
51515;SDS011;37603;55.614;37.326;2023-12-29T14:04:33;22.4;;;14.4;;
51515;SDS011;37603;55.614;37.326;2023-12-29T14:10:32;23.1;;;14.2;;
51515;SDS011;37603;55.614;37.326;2023-12-29T14:16:38;22.6;;;14.8;;
51515;SDS011;37603;55.614;37.326;2023-12-29T14:22:30;23.4;;;15.6;;
51515;SDS011;37603;55.614;37.326;2023-12-29T14:28:28;24.8;;;15.5;;
51515;SDS011;37603;55.614;37.326;2023-12-29T14:34:27;24.4;;;14.7;;
51515;SDS011;37603;55.614;37.326;2023-12-29T14:40:26;22.0;;;14.0;;
51515;SDS011;37603;55.614;37.326;2023-12-29T14:46:25;19.2;;;13.0;;
51515;SDS011;37603;55.614;37.326;2023-12-29T14:52:24;18.4;;;12.6;;
51515;SDS011;37603;55.614;37.326;2023-12-29T14:58:23;17.3;;;13.2;;
51515;SDS011;37603;55.614;37.326;2023-12-29T15:04:21;19.1;;;13.6;;
51515;SDS011;37603;55.614;37.326;2023-12-29T15:10:20;16.8;;;12.2;;
51515;SDS011;37603;55.614;37.326;2023-12-29T15:16:19;15.7;;;11.6;;
51515;SDS011;37603;55.614;37.326;2023-12-29T15:22:18;15.5;;;11.3;;
51515;SDS011;37603;55.614;37.326;2023-12-29T15:28:17;16.0;;;11.8;;
51515;SDS011;37603;55.614;37.326;2023-12-29T15:34:16;15.8;;;11.1;;
51515;SDS011;37603;55.614;37.326;2023-12-29T15:40:15;16.3;;;11.8;;
51515;SDS011;37603;55.614;37.326;2023-12-29T15:46:14;16.9;;;12.4;;
51515;SDS011;37603;55.614;37.326;2023-12-29T15:52:12;17.1;;;12.5;;
51515;SDS011;37603;55.614;37.326;2023-12-29T15:58:11;15.6;;;12.3;;
51515;SDS011;37603;55.614;37.326;2023-12-29T16:04:10;16.6;;;12.1;;
51515;SDS011;37603;55.614;37.326;2023-12-29T16:10:09;17.2;;;12.4;;
51515;SDS011;37603;55.614;37.326;2023-12-29T16:16:08;19.6;;;14.0;;
51515;SDS011;37603;55.614;37.326;2023-12-29T16:22:07;19.0;;;13.3;;
51515;SDS011;37603;55.614;37.326;2023-12-29T16:28:06;17.0;;;12.8;;
51515;SDS011;37603;55.614;37.326;2023-12-29T16:34:04;17.8;;;12.9;;
51515;SDS011;37603;55.614;37.326;2023-12-29T16:40:04;18.2;;;12.8;;
51515;SDS011;37603;55.614;37.326;2023-12-29T16:46:02;18.1;;;12.8;;
51515;SDS011;37603;55.614;37.326;2023-12-29T16:52:01;18.3;;;12.4;;
51515;SDS011;37603;55.614;37.326;2023-12-29T16:58:00;16.9;;;12.8;;
51515;SDS011;37603;55.614;37.326;2023-12-29T17:03:59;14.3;;;11.2;;
51515;SDS011;37603;55.614;37.326;2023-12-29T17:09:58;16.4;;;11.7;;
51515;SDS011;37603;55.614;37.326;2023-12-29T17:15:57;16.1;;;12.0;;
51515;SDS011;37603;55.614;37.326;2023-12-29T17:21:55;15.6;;;11.6;;
51515;SDS011;37603;55.614;37.326;2023-12-29T17:27:55;13.9;;;11.1;;
51515;SDS011;37603;55.614;37.326;2023-12-29T17:33:53;15.6;;;12.0;;
51515;SDS011;37603;55.614;37.326;2023-12-29T17:39:52;15.7;;;11.7;;
51515;SDS011;37603;55.614;37.326;2023-12-29T17:45:51;17.8;;;12.2;;
51515;SDS011;37603;55.614;37.326;2023-12-29T17:51:50;18.3;;;11.8;;
51515;SDS011;37603;55.614;37.326;2023-12-29T17:57:49;16.8;;;11.6;;
51515;SDS011;37603;55.614;37.326;2023-12-29T18:03:47;15.9;;;11.5;;
51515;SDS011;37603;55.614;37.326;2023-12-29T18:09:46;17.4;;;12.3;;
51515;SDS011;37603;55.614;37.326;2023-12-29T18:15:45;15.8;;;11.5;;
51515;SDS011;37603;55.614;37.326;2023-12-29T18:21:44;16.0;;;11.8;;
51515;SDS011;37603;55.614;37.326;2023-12-29T18:27:43;16.2;;;12.4;;
51515;SDS011;37603;55.614;37.326;2023-12-29T18:33:42;18.7;;;12.8;;
51515;SDS011;37603;55.614;37.326;2023-12-29T18:39:41;18.8;;;13.6;;
51515;SDS011;37603;55.614;37.326;2023-12-29T18:45:40;17.4;;;12.7;;
51515;SDS011;37603;55.614;37.326;2023-12-29T18:51:38;16.9;;;12.6;;
51515;SDS011;37603;55.614;37.326;2023-12-29T18:57:38;20.6;;;13.3;;
51515;SDS011;37603;55.614;37.326;2023-12-29T19:03:36;19.4;;;13.7;;
51515;SDS011;37603;55.614;37.326;2023-12-29T19:09:35;20.4;;;14.8;;
51515;SDS011;37603;55.614;37.326;2023-12-29T19:15:34;21.9;;;15.6;;
51515;SDS011;37603;55.614;37.326;2023-12-29T19:21:33;24.0;;;16.5;;
51515;SDS011;37603;55.614;37.326;2023-12-29T19:27:32;21.4;;;15.1;;
51515;SDS011;37603;55.614;37.326;2023-12-29T19:33:31;19.9;;;14.2;;
51515;SDS011;37603;55.614;37.326;2023-12-29T19:39:29;23.9;;;15.7;;
51515;SDS011;37603;55.614;37.326;2023-12-29T19:45:28;22.5;;;15.3;;
51515;SDS011;37603;55.614;37.326;2023-12-29T19:51:27;21.8;;;15.0;;
51515;SDS011;37603;55.614;37.326;2023-12-29T19:57:26;21.9;;;15.1;;
51515;SDS011;37603;55.614;37.326;2023-12-29T20:03:25;20.6;;;14.2;;
51515;SDS011;37603;55.614;37.326;2023-12-29T20:09:24;20.5;;;14.7;;
51515;SDS011;37603;55.614;37.326;2023-12-29T20:15:23;21.9;;;14.8;;
51515;SDS011;37603;55.614;37.326;2023-12-29T20:21:22;21.2;;;14.0;;
51515;SDS011;37603;55.614;37.326;2023-12-29T20:27:21;20.4;;;13.4;;
51515;SDS011;37603;55.614;37.326;2023-12-29T20:33:19;15.8;;;11.8;;
51515;SDS011;37603;55.614;37.326;2023-12-29T20:39:18;19.0;;;12.0;;
51515;SDS011;37603;55.614;37.326;2023-12-29T20:45:17;16.5;;;11.8;;
51515;SDS011;37603;55.614;37.326;2023-12-29T20:51:16;15.4;;;10.7;;
51515;SDS011;37603;55.614;37.326;2023-12-29T20:57:15;14.5;;;10.5;;
51515;SDS011;37603;55.614;37.326;2023-12-29T21:03:14;14.6;;;10.4;;
51515;SDS011;37603;55.614;37.326;2023-12-29T21:09:13;12.8;;;9.5;;
51515;SDS011;37603;55.614;37.326;2023-12-29T21:15:12;10.6;;;8.4;;
51515;SDS011;37603;55.614;37.326;2023-12-29T21:21:10;9.4;;;8.0;;
51515;SDS011;37603;55.614;37.326;2023-12-29T21:27:09;11.2;;;8.5;;
51515;SDS011;37603;55.614;37.326;2023-12-29T21:33:08;11.0;;;8.4;;
51515;SDS011;37603;55.614;37.326;2023-12-29T21:39:07;10.8;;;8.0;;
51515;SDS011;37603;55.614;37.326;2023-12-29T21:45:06;8.5;;;7.5;;
51515;SDS011;37603;55.614;37.326;2023-12-29T21:51:05;9.5;;;7.5;;
51515;SDS011;37603;55.614;37.326;2023-12-29T21:57:04;7.7;;;6.6;;
51515;SDS011;37603;55.614;37.326;2023-12-29T22:03:03;9.3;;;7.2;;
51515;SDS011;37603;55.614;37.326;2023-12-29T22:09:01;7.3;;;6.4;;
51515;SDS011;37603;55.614;37.326;2023-12-29T22:15:00;8.7;;;6.5;;
51515;SDS011;37603;55.614;37.326;2023-12-29T22:20:59;9.3;;;7.5;;
51515;SDS011;37603;55.614;37.326;2023-12-29T22:26:58;8.4;;;7.0;;
51515;SDS011;37603;55.614;37.326;2023-12-29T22:38:56;8.8;;;7.0;;
51515;SDS011;37603;55.614;37.326;2023-12-29T22:44:55;9.3;;;7.2;;
51515;SDS011;37603;55.614;37.326;2023-12-29T22:50:53;8.9;;;7.0;;
51515;SDS011;37603;55.614;37.326;2023-12-29T23:02:51;8.3;;;7.0;;
51515;SDS011;37603;55.614;37.326;2023-12-29T23:14:49;7.5;;;6.3;;
51515;SDS011;37603;55.614;37.326;2023-12-29T23:20:48;7.1;;;5.7;;
51515;SDS011;37603;55.614;37.326;2023-12-29T23:26:47;7.9;;;6.0;;
51515;SDS011;37603;55.614;37.326;2023-12-29T23:32:46;6.2;;;5.3;;
51515;SDS011;37603;55.614;37.326;2023-12-29T23:38:44;5.9;;;4.8;;
51515;SDS011;37603;55.614;37.326;2023-12-29T23:44:43;6.1;;;4.9;;
51515;SDS011;37603;55.614;37.326;2023-12-29T23:50:42;5.4;;;4.5;;
51515;SDS011;37603;55.614;37.326;2023-12-29T23:56:41;4.9;;;4.0;;
